Time;durP1;ratioP1;P1;durP2;ratioP2;P2;SDS_P1;SDS_P2;PMS_P1;PMS_P2;Temp;Humidity;BMP_temperature;BMP_pressure;BME280_temperature;BME280_humidity;BME280_pressure;Samples;Min_cycle;Max_cycle;Signal;HPM_P1;HPM_P2
2023/05/24 00:02:27;;;;;;;8.13;3.15;;;;;;;21.97;56.09;99299.31;4485046;31;33901;-64
2023/05/24 00:04:59;;;;;;;7.37;4.22;;;;;;;21.99;56.05;99298.09;4493838;31;33663;-63
2023/05/24 00:07:27;;;;;;;10.75;3.83;;;;;;;22.01;56.00;99293.25;4494305;31;34989;-65
2023/05/24 00:09:55;;;;;;;9.13;3.97;;;;;;;22.00;55.98;99288.03;4485764;31;33554;-64
2023/05/24 00:12:23;;;;;;;6.18;3.00;;;;;;;22.01;56.03;99289.69;4489255;31;33904;-64
2023/05/24 00:14:50;;;;;;;7.22;3.37;;;;;;;21.94;56.25;99291.56;4497271;31;32922;-64
2023/05/24 00:17:18;;;;;;;7.03;3.47;;;;;;;21.91;56.33;99287.34;4499877;31;34003;-65
2023/05/24 00:19:46;;;;;;;7.43;4.00;;;;;;;21.88;56.44;99285.00;4499876;31;33396;-64
2023/05/24 00:22:13;;;;;;;7.43;4.15;;;;;;;21.70;57.04;99287.38;4487380;31;33701;-63
2023/05/24 00:24:41;;;;;;;5.07;3.30;;;;;;;21.52;57.88;99288.72;4489444;31;32810;-64
2023/05/24 00:27:10;;;;;;;7.45;3.62;;;;;;;21.68;57.41;99287.59;4500068;31;35286;-63
2023/05/24 00:29:38;;;;;;;6.40;3.65;;;;;;;21.60;57.51;99277.69;4495969;31;33545;-64
2023/05/24 00:32:05;;;;;;;11.48;3.22;;;;;;;21.84;56.77;99278.28;4490822;31;33753;-64
2023/05/24 00:34:33;;;;;;;5.20;3.33;;;;;;;21.96;56.09;99276.69;4493714;31;33804;-65
2023/05/24 00:37:01;;;;;;;5.07;2.53;;;;;;;21.93;56.10;99268.91;4498232;31;32835;-63
2023/05/24 00:39:29;;;;;;;6.57;3.00;;;;;;;21.79;56.70;99272.56;4483723;31;33346;-62
2023/05/24 00:41:56;;;;;;;6.47;3.22;;;;;;;21.92;56.12;99269.94;4485617;31;33831;-63
2023/05/24 00:44:25;;;;;;;5.65;4.00;;;;;;;21.89;56.02;99269.50;4493604;31;35068;-63
2023/05/24 00:46:53;;;;;;;6.03;3.30;;;;;;;21.77;56.27;99271.94;4494067;31;34915;-63
2023/05/24 00:49:22;;;;;;;4.72;2.55;;;;;;;21.63;56.74;99277.28;4485705;31;33552;-63
2023/05/24 00:51:51;;;;;;;5.45;2.85;;;;;;;21.63;56.64;99273.72;4483188;31;32705;-64
2023/05/24 00:54:19;;;;;;;7.68;3.17;;;;;;;21.71;56.56;99275.47;4481719;31;34003;-63
2023/05/24 00:56:47;;;;;;;4.68;2.53;;;;;;;21.68;56.85;99281.31;4492959;31;34920;-63
2023/05/24 00:59:15;;;;;;;5.28;3.20;;;;;;;21.77;56.55;99280.12;4487878;31;34232;-64
2023/05/24 01:01:45;;;;;;;6.65;3.35;;;;;;;21.69;56.66;99283.81;4484274;31;33357;-65
2023/05/24 01:04:13;;;;;;;8.18;4.75;;;;;;;21.74;56.67;99284.06;4498983;31;34314;-62
2023/05/24 01:06:56;;;;;;;7.60;4.18;;;;;;;21.76;56.84;99289.31;4485661;31;33937;-63
2023/05/24 01:09:39;;;;;;;8.30;3.72;;;;;;;21.72;57.00;99286.16;4492049;31;33243;-64
2023/05/24 01:12:11;;;;;;;8.93;3.58;;;;;;;21.72;57.05;99279.84;4488606;31;34491;-63
2023/05/24 01:14:52;;;;;;;5.40;2.97;;;;;;;21.78;56.80;99279.06;4484370;31;33834;-64
2023/05/24 01:17:25;;;;;;;10.35;4.00;;;;;;;21.78;56.88;99282.63;4484508;31;34016;-65
2023/05/24 01:20:09;;;;;;;7.60;3.95;;;;;;;21.74;57.10;99280.53;4480702;31;31919;-64
2023/05/24 01:23:16;;;;;;;5.28;3.35;;;;;;;21.73;57.34;99274.19;4484848;31;33548;-64
2023/05/24 01:26:19;;;;;;;6.82;3.92;;;;;;;21.74;57.38;99275.06;4438369;31;34947;-64
2023/05/24 01:28:48;;;;;;;8.48;4.43;;;;;;;21.76;57.40;99264.81;4494859;31;33663;-63
2023/05/24 01:31:17;;;;;;;7.45;4.70;;;;;;;21.79;57.08;99270.69;4488878;31;33069;-64
2023/05/24 01:33:48;;;;;;;8.77;4.85;;;;;;;21.88;56.76;99276.84;4497271;31;33841;-64
2023/05/24 01:36:18;;;;;;;7.82;4.15;;;;;;;21.80;56.97;99271.56;4496302;31;33231;-63
2023/05/24 01:38:47;;;;;;;8.70;5.72;;;;;;;21.84;56.80;99268.22;4490288;31;33120;-64
2023/05/24 01:41:40;;;;;;;9.43;5.72;;;;;;;21.62;57.55;99263.88;4483730;31;32530;-64
2023/05/24 01:44:07;;;;;;;8.20;3.53;;;;;;;21.85;57.04;99264.44;4494831;31;35074;-64
2023/05/24 01:46:36;;;;;;;8.23;5.00;;;;;;;21.90;56.63;99255.69;4482934;31;34031;-64
2023/05/24 01:49:26;;;;;;;11.45;5.05;;;;;;;21.86;56.81;99255.25;4493685;31;33819;-65
2023/05/24 01:52:07;;;;;;;7.50;4.80;;;;;;;21.85;57.00;99259.00;4484148;31;35152;-65
2023/05/24 01:54:37;;;;;;;7.90;4.10;;;;;;;21.77;56.99;99258.34;4492912;31;34568;-65
2023/05/24 01:57:07;;;;;;;7.37;4.82;;;;;;;21.77;57.13;99252.88;4482005;31;32866;-63
2023/05/24 01:59:35;;;;;;;9.18;4.57;;;;;;;21.80;56.93;99255.22;4490037;31;33890;-65
2023/05/24 02:02:03;;;;;;;7.87;4.22;;;;;;;21.85;56.75;99250.81;4489308;31;34156;-64
2023/05/24 02:04:31;;;;;;;11.70;5.20;;;;;;;21.87;56.91;99256.94;4483070;31;33422;-64
2023/05/24 02:06:58;;;;;;;7.50;5.35;;;;;;;21.79;56.83;99254.34;4479858;31;33973;-65
2023/05/24 02:09:26;;;;;;;9.43;4.57;;;;;;;21.85;56.68;99261.72;4482137;31;34217;-64
2023/05/24 02:11:53;;;;;;;8.15;5.90;;;;;;;21.84;56.63;99254.59;4494376;31;32095;-64
2023/05/24 02:14:23;;;;;;;14.25;6.10;;;;;;;21.92;56.43;99259.03;4487962;31;33679;-64
2023/05/24 02:16:50;;;;;;;10.15;5.55;;;;;;;21.83;56.61;99263.00;4493103;31;35018;-64
2023/05/24 02:19:18;;;;;;;8.20;5.53;;;;;;;21.63;57.38;99260.94;4492186;31;33671;-64
2023/05/24 02:21:46;;;;;;;8.90;5.62;;;;;;;21.65;57.35;99262.63;4495702;31;33306;-64
2023/05/24 02:24:13;;;;;;;10.07;6.12;;;;;;;21.80;56.83;99261.50;4483746;31;33804;-64
2023/05/24 02:26:41;;;;;;;9.65;6.12;;;;;;;21.84;56.51;99261.94;4483582;31;33807;-64
2023/05/24 02:29:09;;;;;;;8.63;5.00;;;;;;;21.85;56.48;99256.28;4486228;31;33894;-64
2023/05/24 02:31:36;;;;;;;8.63;5.40;;;;;;;21.81;56.45;99254.16;4493308;31;35557;-65
2023/05/24 02:34:04;;;;;;;8.30;5.00;;;;;;;21.72;56.85;99260.78;4480277;31;34708;-64
2023/05/24 02:36:34;;;;;;;6.30;4.10;;;;;;;21.70;56.92;99251.97;4481847;31;33923;-64
2023/05/24 02:39:03;;;;;;;8.82;5.20;;;;;;;21.71;56.75;99243.62;4484970;31;34144;-65
2023/05/24 02:41:30;;;;;;;9.85;4.93;;;;;;;21.52;57.50;99247.03;4487480;31;33423;-64
2023/05/24 02:43:58;;;;;;;9.63;5.30;;;;;;;21.63;57.12;99250.03;4492739;31;34850;-63
2023/05/24 02:46:25;;;;;;;8.63;4.53;;;;;;;21.64;57.26;99250.91;4481172;31;33817;-62
2023/05/24 02:48:53;;;;;;;7.32;4.68;;;;;;;21.69;56.97;99247.56;4493449;31;34936;-63
2023/05/24 02:51:21;;;;;;;10.38;5.47;;;;;;;21.68;57.06;99235.00;4495123;31;33414;-63
2023/05/24 02:53:49;;;;;;;9.68;4.80;;;;;;;21.67;57.04;99238.75;4485235;31;33541;-64
2023/05/24 02:56:17;;;;;;;8.07;5.07;;;;;;;21.58;57.24;99241.63;4490343;31;33914;-64
2023/05/24 02:58:45;;;;;;;7.15;4.65;;;;;;;21.68;56.93;99235.84;4487112;31;34755;-63
2023/05/24 03:01:12;;;;;;;14.10;6.32;;;;;;;21.72;56.84;99242.56;4488821;31;34432;-62
2023/05/24 03:03:40;;;;;;;8.23;5.53;;;;;;;21.48;57.51;99241.16;4493608;31;33706;-63
2023/05/24 03:06:08;;;;;;;8.43;4.37;;;;;;;21.65;57.01;99249.03;4494452;31;34825;-61
2023/05/24 03:08:38;;;;;;;8.98;4.45;;;;;;;21.69;56.82;99245.69;4487399;31;34174;-61
2023/05/24 03:11:06;;;;;;;8.13;4.60;;;;;;;21.46;57.58;99250.53;4485089;31;33909;-63
2023/05/24 03:13:33;;;;;;;10.88;5.87;;;;;;;21.61;57.24;99243.97;4488917;31;34756;-63
2023/05/24 03:16:01;;;;;;;9.10;4.95;;;;;;;21.62;57.17;99253.81;4491895;31;33917;-63
2023/05/24 03:18:29;;;;;;;9.52;5.43;;;;;;;21.72;56.74;99256.19;4487166;31;35805;-63
2023/05/24 03:20:57;;;;;;;11.70;5.28;;;;;;;21.71;56.47;99250.94;4489104;31;34499;-63
2023/05/24 03:23:24;;;;;;;8.60;5.95;;;;;;;21.43;57.09;99253.66;4494816;31;33507;-63
2023/05/24 03:25:53;;;;;;;11.20;5.97;;;;;;;21.55;56.95;99263.81;4491472;31;34278;-64
2023/05/24 03:28:21;;;;;;;8.68;6.07;;;;;;;21.38;57.51;99254.25;4480747;31;33886;-63
2023/05/24 03:30:48;;;;;;;10.30;5.65;;;;;;;21.38;57.67;99265.16;4487923;31;34630;-63
2023/05/24 03:33:17;;;;;;;8.60;4.78;;;;;;;21.18;58.45;99252.13;4487171;31;33772;-64
2023/05/24 03:35:47;;;;;;;9.32;5.90;;;;;;;21.22;58.48;99262.63;4480520;31;34366;-64
2023/05/24 03:38:15;;;;;;;10.10;5.95;;;;;;;21.21;58.71;99259.09;4480446;31;32933;-62
2023/05/24 03:40:43;;;;;;;15.20;4.40;;;;;;;21.11;59.45;99264.84;4487183;31;33747;-62
2023/05/24 03:43:11;;;;;;;9.75;4.53;;;;;;;21.19;59.61;99263.91;4489232;31;33666;-63
2023/05/24 03:45:39;;;;;;;12.70;6.55;;;;;;;21.25;59.58;99265.84;4480584;31;34983;-62
2023/05/24 03:48:07;;;;;;;12.00;7.50;;;;;;;20.93;60.85;99265.31;4478870;31;34939;-63
2023/05/24 03:50:35;;;;;;;12.60;6.68;;;;;;;21.07;60.48;99271.72;4493642;31;32163;-63
2023/05/24 03:53:02;;;;;;;12.02;6.57;;;;;;;21.18;60.75;99275.78;4491140;31;33949;-62
2023/05/24 03:55:30;;;;;;;13.35;7.00;;;;;;;21.12;60.80;99276.56;4495957;31;33817;-63
2023/05/24 03:57:58;;;;;;;12.95;5.70;;;;;;;21.22;60.51;99282.56;4495168;31;32891;-62
2023/05/24 04:00:25;;;;;;;8.23;5.97;;;;;;;21.21;60.91;99282.72;4488536;31;34619;-62
2023/05/24 04:02:54;;;;;;;13.25;6.97;;;;;;;21.27;60.74;99281.97;4488904;31;34057;-63
2023/05/24 04:05:25;;;;;;;13.70;6.60;;;;;;;21.44;60.09;99282.56;4484949;31;33740;-61
2023/05/24 04:07:54;;;;;;;9.18;5.80;;;;;;;21.50;59.96;99281.78;4492142;31;34110;-62
2023/05/24 04:10:21;;;;;;;12.95;5.82;;;;;;;21.29;60.26;99282.63;4483866;31;33780;-63
2023/05/24 04:12:49;;;;;;;8.90;5.75;;;;;;;21.46;59.87;99281.31;4492490;31;33559;-62
2023/05/24 04:15:17;;;;;;;8.68;4.87;;;;;;;21.70;59.29;99288.25;4492332;31;33951;-62
2023/05/24 04:17:45;;;;;;;8.32;4.62;;;;;;;21.42;60.24;99285.50;4482113;31;35255;-64
2023/05/24 04:20:13;;;;;;;7.47;3.87;;;;;;;21.08;61.14;99295.16;4498162;31;33608;-63
2023/05/24 04:22:41;;;;;;;10.55;6.18;;;;;;;21.25;61.00;99292.19;4489210;31;33707;-63
2023/05/24 04:25:09;;;;;;;13.23;6.62;;;;;;;20.89;62.28;99293.06;4491307;31;33894;-63
2023/05/24 04:27:36;;;;;;;9.90;5.15;;;;;;;20.93;62.19;99299.84;4493109;31;34224;-63
2023/05/24 04:30:06;;;;;;;8.18;5.32;;;;;;;21.17;61.72;99304.06;4483711;31;34848;-63
2023/05/24 04:32:35;;;;;;;11.45;5.05;;;;;;;20.24;65.38;99303.75;4494677;31;33916;-63
2023/05/24 04:35:04;;;;;;;11.23;5.90;;;;;;;20.39;65.05;99306.47;4491316;31;33940;-63
2023/05/24 04:37:32;;;;;;;10.60;6.55;;;;;;;20.57;64.56;99310.69;4492394;31;34603;-63
2023/05/24 04:39:59;;;;;;;11.98;6.82;;;;;;;20.86;63.65;99309.78;4494570;31;32355;-63
2023/05/24 04:42:30;;;;;;;10.40;6.53;;;;;;;20.59;64.55;99308.63;4490498;31;34076;-63
2023/05/24 04:44:58;;;;;;;11.25;6.37;;;;;;;20.66;64.44;99315.81;4483634;31;34150;-62
2023/05/24 04:47:26;;;;;;;11.77;6.28;;;;;;;20.61;64.65;99312.84;4483333;31;34953;-63
2023/05/24 04:49:54;;;;;;;12.37;6.53;;;;;;;20.66;64.62;99314.97;4498404;31;33663;-62
2023/05/24 04:52:22;;;;;;;14.27;7.62;;;;;;;20.80;63.92;99308.69;4481771;31;33979;-62
2023/05/24 04:54:50;;;;;;;11.20;7.53;;;;;;;20.67;64.70;99317.53;4486619;31;32312;-62
2023/05/24 04:57:17;;;;;;;9.73;6.40;;;;;;;20.25;66.34;99315.44;4481299;31;33844;-62
2023/05/24 04:59:45;;;;;;;24.30;6.75;;;;;;;20.22;66.46;99315.81;4495953;31;34224;-62
2023/05/24 05:02:12;;;;;;;13.62;7.57;;;;;;;20.48;65.79;99326.22;4493733;31;31722;-63
2023/05/24 05:04:40;;;;;;;12.95;7.30;;;;;;;19.64;68.56;99318.28;4490867;31;33266;-63
2023/05/24 05:07:08;;;;;;;10.40;6.65;;;;;;;20.59;65.42;99320.34;4485357;31;34025;-62
2023/05/24 05:09:36;;;;;;;10.23;6.47;;;;;;;20.63;65.36;99324.34;4493164;31;33536;-62
2023/05/24 05:12:04;;;;;;;14.02;6.62;;;;;;;20.76;64.61;99317.41;4482363;31;35157;-62
2023/05/24 05:14:32;;;;;;;11.27;6.85;;;;;;;20.03;67.60;99322.66;4481599;31;33724;-62
2023/05/24 05:16:59;;;;;;;12.02;7.20;;;;;;;20.13;66.79;99316.97;4485498;31;33995;-62
2023/05/24 05:19:27;;;;;;;12.15;7.43;;;;;;;20.23;66.85;99326.53;4493719;31;33081;-62
2023/05/24 05:21:54;;;;;;;14.30;6.72;;;;;;;20.77;64.51;99328.09;4484726;31;34123;-62
2023/05/24 05:24:22;;;;;;;10.65;6.57;;;;;;;20.98;63.75;99324.56;4480622;31;33734;-62
2023/05/24 05:26:49;;;;;;;10.77;6.47;;;;;;;19.82;67.67;99328.81;4496348;31;34416;-63
2023/05/24 05:29:17;;;;;;;12.65;7.07;;;;;;;20.16;66.82;99330.16;4492304;31;33598;-63
2023/05/24 05:31:45;;;;;;;10.15;6.87;;;;;;;20.33;66.31;99328.97;4496301;31;33382;-63
2023/05/24 05:34:13;;;;;;;12.35;5.93;;;;;;;20.06;67.63;99326.88;4491019;31;34109;-63
2023/05/24 05:36:41;;;;;;;17.62;7.45;;;;;;;20.17;67.17;99327.25;4493754;31;35188;-63
2023/05/24 05:39:08;;;;;;;10.10;6.30;;;;;;;19.69;68.50;99336.75;4493432;31;34316;-63
2023/05/24 05:41:41;;;;;;;11.77;7.32;;;;;;;20.52;65.88;99334.88;4486418;31;34814;-63
2023/05/24 05:44:12;;;;;;;10.52;6.32;;;;;;;20.04;67.23;99332.50;4484483;31;35140;-63
2023/05/24 05:46:42;;;;;;;9.68;7.45;;;;;;;19.64;68.40;99344.59;4482673;31;33037;-62
2023/05/24 05:49:14;;;;;;;14.90;7.55;;;;;;;19.47;69.41;99346.56;4490835;31;34851;-63
2023/05/24 05:51:42;;;;;;;11.70;7.12;;;;;;;19.54;68.74;99347.50;4491977;31;32411;-64
2023/05/24 05:54:14;;;;;;;11.23;6.87;;;;;;;20.38;65.71;99345.53;4480934;31;33648;-63
2023/05/24 05:56:44;;;;;;;11.20;7.25;;;;;;;20.49;65.43;99357.81;4493902;31;34280;-64
2023/05/24 05:59:15;;;;;;;13.13;7.18;;;;;;;19.85;67.23;99362.91;4494190;31;34631;-64
2023/05/24 06:01:45;;;;;;;10.30;6.75;;;;;;;20.28;65.92;99358.56;4491378;31;32176;-64
2023/05/24 06:04:16;;;;;;;12.13;6.72;;;;;;;19.80;67.46;99368.03;4494647;31;34371;-64
2023/05/24 06:06:48;;;;;;;10.90;7.62;;;;;;;20.33;65.67;99360.72;4491946;31;34827;-65
2023/05/24 06:09:16;;;;;;;9.13;6.37;;;;;;;20.28;66.08;99365.88;4482567;31;33249;-64
2023/05/24 06:11:44;;;;;;;11.68;6.50;;;;;;;20.66;64.18;99370.19;4485213;31;34500;-64
2023/05/24 06:14:17;;;;;;;10.25;6.30;;;;;;;20.16;65.94;99366.34;4491148;31;36159;-64
2023/05/24 06:16:46;;;;;;;8.30;5.62;;;;;;;20.63;64.74;99364.31;4494499;31;33943;-62
2023/05/24 06:19:15;;;;;;;15.00;6.90;;;;;;;21.13;63.56;99363.47;4490714;31;34405;-62
2023/05/24 06:21:46;;;;;;;7.65;5.43;;;;;;;20.67;64.13;99365.59;4491749;31;33604;-61
2023/05/24 06:24:19;;;;;;;8.82;6.28;;;;;;;21.19;63.11;99364.59;4482572;31;34990;-61
2023/05/24 06:26:48;;;;;;;10.90;6.70;;;;;;;20.79;64.30;99374.13;4495350;31;33949;-61
2023/05/24 06:29:20;;;;;;;8.25;5.40;;;;;;;20.85;64.38;99376.09;4495178;31;34894;-62
2023/05/24 06:31:48;;;;;;;12.73;7.62;;;;;;;21.07;63.12;99372.41;4487982;31;34793;-61
2023/05/24 06:34:20;;;;;;;11.27;6.62;;;;;;;21.38;62.54;99379.47;4496231;31;33911;-62
2023/05/24 06:36:49;;;;;;;14.25;6.50;;;;;;;21.19;63.18;99375.47;4490987;31;34056;-63
2023/05/24 06:39:18;;;;;;;13.13;6.90;;;;;;;21.30;62.22;99371.41;4491716;31;33802;-64
2023/05/24 06:41:46;;;;;;;9.43;5.80;;;;;;;21.23;61.75;99374.03;4490812;31;34221;-64
2023/05/24 06:44:15;;;;;;;8.02;5.45;;;;;;;20.98;62.84;99378.97;4498079;31;34271;-63
2023/05/24 06:46:43;;;;;;;9.32;5.45;;;;;;;21.49;61.22;99380.84;4496625;31;32319;-64
2023/05/24 06:49:11;;;;;;;10.38;7.03;;;;;;;21.29;61.53;99381.44;4487682;31;33633;-63
2023/05/24 06:51:38;;;;;;;9.65;6.25;;;;;;;21.20;62.04;99384.47;4495234;31;33506;-65
2023/05/24 06:54:06;;;;;;;8.90;6.32;;;;;;;20.66;63.47;99389.25;4493417;31;34032;-63
2023/05/24 06:56:34;;;;;;;9.82;6.30;;;;;;;21.34;61.92;99380.84;4489689;31;34826;-62
2023/05/24 06:59:01;;;;;;;14.18;7.18;;;;;;;21.25;61.34;99392.88;4491365;31;32195;-63
2023/05/24 07:01:29;;;;;;;11.50;6.82;;;;;;;20.59;62.57;99387.47;4491789;31;34145;-62
2023/05/24 07:03:58;;;;;;;15.80;7.37;;;;;;;20.66;62.53;99389.25;4496555;31;33815;-65
2023/05/24 07:06:25;;;;;;;10.77;6.43;;;;;;;20.70;62.30;99384.25;4483176;31;34170;-64
2023/05/24 07:08:53;;;;;;;11.50;6.07;;;;;;;20.79;62.60;99398.63;4491206;31;33541;-63
2023/05/24 07:11:21;;;;;;;9.43;6.25;;;;;;;20.72;62.59;99384.94;4492596;31;33920;-66
2023/05/24 07:13:49;;;;;;;14.02;6.70;;;;;;;21.14;61.48;99395.06;4488894;31;33719;-65
2023/05/24 07:16:17;;;;;;;12.07;6.18;;;;;;;20.33;63.64;99398.78;4487429;31;34009;-64
2023/05/24 07:18:44;;;;;;;10.98;6.62;;;;;;;20.83;61.16;99410.78;4497273;31;34776;-64
2023/05/24 07:21:12;;;;;;;8.10;5.50;;;;;;;20.84;61.06;99404.34;4495052;31;34602;-63
2023/05/24 07:23:40;;;;;;;9.52;5.32;;;;;;;20.75;61.94;99413.63;4492891;31;33774;-65
2023/05/24 07:26:07;;;;;;;9.40;5.28;;;;;;;20.71;61.13;99415.88;4496350;31;34620;-63
2023/05/24 07:28:37;;;;;;;10.18;6.72;;;;;;;20.59;62.18;99420.94;4499263;31;34364;-65
2023/05/24 07:31:06;;;;;;;9.75;6.15;;;;;;;20.64;62.29;99423.94;4485899;31;35427;-66
2023/05/24 07:33:38;;;;;;;7.37;4.57;;;;;;;20.36;62.64;99431.88;4497056;31;34067;-64
2023/05/24 07:36:06;;;;;;;9.05;5.55;;;;;;;21.39;59.61;99422.84;4489942;31;34004;-63
2023/05/24 07:38:34;;;;;;;11.65;6.82;;;;;;;21.36;60.27;99422.37;4488894;31;33531;-64
2023/05/24 07:41:03;;;;;;;9.20;5.22;;;;;;;21.80;59.52;99421.37;4498229;31;33838;-63
2023/05/24 07:43:31;;;;;;;10.32;5.55;;;;;;;22.00;58.31;99424.28;4490720;31;35104;-65
2023/05/24 07:45:58;;;;;;;7.62;4.68;;;;;;;21.60;59.14;99410.25;4486901;31;35023;-65
2023/05/24 07:48:26;;;;;;;14.23;6.22;;;;;;;21.99;57.98;99418.00;4495234;31;33247;-65
2023/05/24 07:50:54;;;;;;;18.25;8.35;;;;;;;22.38;57.57;99415.81;4495409;31;33624;-64
2023/05/24 07:53:22;;;;;;;11.20;6.90;;;;;;;21.86;58.66;99418.72;4496757;31;33967;-63
2023/05/24 07:55:50;;;;;;;9.70;6.72;;;;;;;21.94;58.88;99420.44;4490111;31;33969;-63
2023/05/24 07:58:18;;;;;;;11.38;6.07;;;;;;;22.43;56.90;99425.06;4488622;31;34682;-63
2023/05/24 08:00:45;;;;;;;9.60;5.40;;;;;;;22.16;57.94;99423.19;4487076;31;32373;-63
2023/05/24 08:03:14;;;;;;;9.90;6.80;;;;;;;22.71;56.80;99418.72;4496216;31;33757;-63
2023/05/24 08:05:43;;;;;;;9.73;5.78;;;;;;;22.60;56.54;99424.72;4499741;31;33875;-65
2023/05/24 08:08:11;;;;;;;10.50;6.05;;;;;;;22.77;56.09;99431.56;4498850;31;33527;-63
2023/05/24 08:10:38;;;;;;;11.02;6.62;;;;;;;22.10;56.92;99431.06;4498514;31;34753;-64
2023/05/24 08:13:06;;;;;;;13.40;5.78;;;;;;;22.05;57.30;99429.97;4497831;31;35185;-64
2023/05/24 08:15:33;;;;;;;13.07;6.85;;;;;;;22.39;56.64;99423.78;4496306;31;33518;-62
2023/05/24 08:18:02;;;;;;;9.60;6.95;;;;;;;22.72;55.58;99426.69;4497341;31;34425;-64
2023/05/24 08:20:30;;;;;;;8.23;5.85;;;;;;;22.95;54.84;99439.25;4497135;31;35092;-65
2023/05/24 08:22:57;;;;;;;11.38;6.80;;;;;;;22.75;55.56;99430.91;4493914;31;34420;-64
2023/05/24 08:25:26;;;;;;;9.55;5.45;;;;;;;22.62;56.31;99442.59;4494286;31;34076;-63
2023/05/24 08:27:54;;;;;;;7.15;4.37;;;;;;;22.64;56.17;99442.41;4487988;31;34195;-64
2023/05/24 08:30:22;;;;;;;7.00;5.03;;;;;;;22.54;54.79;99437.31;4493989;31;33867;-65
2023/05/24 08:32:51;;;;;;;7.93;5.10;;;;;;;22.97;54.02;99448.06;4494047;31;34004;-63
2023/05/24 08:35:18;;;;;;;6.07;4.45;;;;;;;22.96;53.82;99449.12;4489956;31;34277;-65
2023/05/24 08:37:48;;;;;;;12.32;6.05;;;;;;;23.01;53.81;99443.88;4491113;31;33375;-65
2023/05/24 08:40:17;;;;;;;7.18;4.47;;;;;;;22.78;54.42;99449.63;4493267;31;33863;-64
2023/05/24 08:42:45;;;;;;;7.10;4.65;;;;;;;22.99;53.91;99460.47;4486809;31;33334;-64
2023/05/24 08:45:14;;;;;;;9.35;5.05;;;;;;;22.97;53.77;99461.72;4494338;31;34580;-63
2023/05/24 08:47:42;;;;;;;7.15;4.70;;;;;;;23.06;54.45;99462.41;4492331;31;34787;-64
2023/05/24 08:50:10;;;;;;;8.20;4.50;;;;;;;22.69;53.84;99467.19;4498136;31;34892;-65
2023/05/24 08:52:38;;;;;;;11.45;5.25;;;;;;;22.56;55.35;99459.75;4498089;31;35115;-64
2023/05/24 08:55:07;;;;;;;9.00;5.05;;;;;;;22.95;54.89;99464.66;4481945;31;34254;-64
2023/05/24 08:57:38;;;;;;;7.97;4.85;;;;;;;22.70;54.16;99463.44;4492716;31;33449;-66
2023/05/24 09:00:11;;;;;;;7.93;4.68;;;;;;;23.50;53.36;99459.22;4492883;31;32556;-68
2023/05/24 09:02:41;;;;;;;8.32;4.53;;;;;;;23.30;53.30;99463.75;4496034;31;33614;-65
2023/05/24 09:05:10;;;;;;;8.82;4.35;;;;;;;23.08;53.51;99473.94;4495759;31;34101;-65
2023/05/24 09:07:39;;;;;;;7.57;4.70;;;;;;;23.24;52.92;99479.06;4496044;31;33609;-64
2023/05/24 09:10:08;;;;;;;8.50;5.75;;;;;;;23.20;53.78;99469.59;4486962;31;34880;-64
2023/05/24 09:12:37;;;;;;;16.48;7.30;;;;;;;23.56;52.99;99469.31;4492170;31;33015;-63
2023/05/24 09:15:06;;;;;;;7.82;5.15;;;;;;;23.31;53.98;99474.50;4488425;31;34338;-63
2023/05/24 09:17:35;;;;;;;9.13;4.85;;;;;;;23.65;52.98;99472.69;4498052;31;33699;-63
2023/05/24 09:20:07;;;;;;;14.52;5.80;;;;;;;23.42;52.54;99471.16;4492472;31;34455;-63
2023/05/24 09:22:39;;;;;;;9.90;5.20;;;;;;;24.07;51.23;99476.19;4497051;31;35261;-63
2023/05/24 09:25:10;;;;;;;6.68;4.68;;;;;;;23.66;51.42;99477.13;4498127;31;34853;-65
2023/05/24 09:27:38;;;;;;;9.52;5.70;;;;;;;23.94;51.52;99483.31;4490846;31;33777;-65
2023/05/24 09:30:09;;;;;;;8.07;4.28;;;;;;;24.06;49.86;99480.81;4489578;31;33620;-65
2023/05/24 09:32:37;;;;;;;8.20;4.43;;;;;;;24.13;49.53;99480.81;4495890;31;33950;-66
2023/05/24 09:35:08;;;;;;;11.02;5.97;;;;;;;23.67;51.60;99478.81;4493506;31;35149;-65
2023/05/24 09:37:40;;;;;;;13.07;5.78;;;;;;;24.18;50.82;99475.56;4492190;31;33391;-63
2023/05/24 09:40:17;;;;;;;5.45;3.17;;;;;;;24.26;50.51;99482.72;4487770;31;34758;-62
2023/05/24 09:42:45;;;;;;;8.70;4.90;;;;;;;24.58;50.02;99473.69;4485895;31;35141;-63
2023/05/24 09:45:14;;;;;;;8.75;4.68;;;;;;;24.23;50.01;99481.22;4487517;31;34283;-62
2023/05/24 09:47:42;;;;;;;8.38;4.62;;;;;;;24.03;49.81;99473.03;4493714;31;33775;-63
2023/05/24 09:50:16;;;;;;;8.50;4.90;;;;;;;24.13;50.29;99481.66;4494668;31;34583;-63
2023/05/24 09:52:44;;;;;;;10.30;4.28;;;;;;;24.21;49.47;99483.34;4490556;31;33860;-63
2023/05/24 09:55:19;;;;;;;7.50;4.22;;;;;;;24.90;48.95;99476.56;4491800;31;34161;-64
2023/05/24 09:57:54;;;;;;;7.70;4.45;;;;;;;24.83;48.57;99484.81;4496893;31;33816;-63
2023/05/24 10:00:22;;;;;;;;;;;;;;;24.73;48.87;99476.19;4492884;31;33649;-62
2023/05/24 10:03:06;;;;;;;7.43;4.55;;;;;;;25.42;46.43;99480.22;4500362;31;34499;-64
2023/05/24 10:05:34;;;;;;;7.37;3.75;;;;;;;25.24;47.29;99467.25;4498236;31;35724;-63
2023/05/24 10:08:07;;;;;;;8.50;5.22;;;;;;;25.10;47.92;99476.50;4493447;31;33260;-63
2023/05/24 10:10:35;;;;;;;6.40;3.78;;;;;;;24.91;47.37;99486.50;4498020;31;34629;-63
2023/05/24 10:13:04;;;;;;;6.22;3.72;;;;;;;25.54;46.82;99475.72;4496858;31;34239;-63
2023/05/24 10:15:31;;;;;;;6.82;4.12;;;;;;;25.65;45.87;99482.44;4497079;31;33847;-65
2023/05/24 10:18:00;;;;;;;8.38;4.65;;;;;;;25.42;46.86;99476.63;4493261;31;33245;-64
2023/05/24 10:20:28;;;;;;;7.15;5.35;;;;;;;25.87;46.17;99473.91;4494349;31;33628;-65
2023/05/24 10:23:00;;;;;;;9.13;5.07;;;;;;;25.94;44.74;99481.03;4490710;31;35160;-65
2023/05/24 10:25:32;;;;;;;7.87;4.28;;;;;;;25.61;44.21;99486.66;4497017;31;35296;-64
2023/05/24 10:28:03;;;;;;;7.70;3.87;;;;;;;25.53;44.45;99478.72;4496319;31;34397;-65
2023/05/24 10:30:36;;;;;;;7.12;4.22;;;;;;;25.89;44.17;99480.84;4486235;31;33842;-66
2023/05/24 10:33:06;;;;;;;7.05;5.28;;;;;;;25.72;45.35;99475.03;4495597;31;34293;-64
2023/05/24 10:35:36;;;;;;;4.70;3.75;;;;;;;26.06;45.15;99472.09;4481828;31;34002;-65
2023/05/24 10:38:08;;;;;;;8.40;4.07;;;;;;;26.20;44.90;99473.69;4488277;31;35281;-63
2023/05/24 10:40:41;;;;;;;9.93;4.60;;;;;;;26.58;43.46;99473.59;4491489;31;34772;-65
2023/05/24 10:43:09;;;;;;;7.40;4.07;;;;;;;26.44;43.44;99472.00;4492993;31;33863;-64
2023/05/24 10:45:38;;;;;;;6.62;4.68;;;;;;;26.74;42.72;99463.06;4495436;31;34248;-63
2023/05/24 10:48:12;;;;;;;9.82;6.22;;;;;;;26.58;42.93;99470.84;4492461;31;34989;-65
2023/05/24 10:50:40;;;;;;;7.22;5.00;;;;;;;26.02;44.30;99468.94;4499208;31;35101;-64
2023/05/24 10:53:21;;;;;;;6.90;4.45;;;;;;;26.48;43.35;99462.25;4498876;31;33641;-64
2023/05/24 10:56:00;;;;;;;9.10;4.57;;;;;;;26.36;41.46;99464.88;4497422;31;34776;-64
2023/05/24 10:58:50;;;;;;;5.62;3.83;;;;;;;26.50;41.64;99467.53;4499871;31;34707;-64
2023/05/24 11:01:29;;;;;;;9.45;4.90;;;;;;;26.65;42.78;99460.63;4492999;31;33833;-65
2023/05/24 11:04:08;;;;;;;9.48;5.00;;;;;;;26.12;43.96;99457.47;4497051;31;33993;-63
2023/05/24 11:07:08;;;;;;;6.35;3.95;;;;;;;26.75;43.20;99462.03;4498111;31;34869;-64
2023/05/24 11:09:46;;;;;;;7.85;5.03;;;;;;;26.63;43.00;99457.28;4463870;31;33631;-65
2023/05/24 11:12:19;;;;;;;5.30;3.17;;;;;;;26.50;42.61;99459.31;4495453;31;34117;-65
2023/05/24 11:14:51;;;;;;;8.13;3.95;;;;;;;27.25;40.97;99462.75;4491496;31;35088;-65
2023/05/24 11:17:20;;;;;;;5.50;3.62;;;;;;;27.28;40.40;99451.28;4496360;31;34042;-65
2023/05/24 11:19:53;;;;;;;9.45;4.10;;;;;;;27.00;41.74;99454.56;4497317;31;33837;-64
2023/05/24 11:22:24;;;;;;;9.00;3.87;;;;;;;26.85;40.73;99454.09;4494959;31;35048;-65
2023/05/24 11:24:52;;;;;;;7.05;4.12;;;;;;;26.61;40.52;99453.94;4495525;31;36454;-65
2023/05/24 11:27:20;;;;;;;5.93;3.37;;;;;;;27.16;39.83;99453.16;4496460;31;33932;-65
2023/05/24 11:29:48;;;;;;;8.55;4.07;;;;;;;27.35;40.59;99454.81;4494780;31;34430;-64
2023/05/24 11:32:19;;;;;;;7.93;3.47;;;;;;;27.21;40.19;99446.97;4496773;31;34953;-65
2023/05/24 11:34:47;;;;;;;8.32;3.78;;;;;;;27.07;39.78;99443.50;4497651;31;33886;-65
2023/05/24 11:37:15;;;;;;;5.72;3.62;;;;;;;26.64;40.00;99441.62;4502285;31;33775;-65
2023/05/24 11:39:50;;;;;;;5.70;3.30;;;;;;;26.87;40.13;99444.56;4502953;31;33702;-65
2023/05/24 11:42:21;;;;;;;6.37;3.80;;;;;;;26.52;40.01;99443.44;4503638;31;34924;-64
2023/05/24 11:44:49;;;;;;;6.37;3.47;;;;;;;27.27;39.89;99443.28;4498717;31;34997;-63